LSGG/GVA METAR and TAF weather

Enter ICAO airport designator
Station Type Date Time Source
LSGG METAR 2019/11/13 02:50 UTC NOAA

LSGG 130250Z AUTO VRB01KT 9999 BKN059 02/02 Q1004 NOSIG


Station Type Date Time Source
LSGG Decoded METAR 2019/11/13 02:50 UTC NOAA

Geneve-Cointrin, Switzerland (LSGG) 46-15N 006-08E 416M
Nov 12, 2019 - 09:50 PM EST / 2019.11.13 0250 UTC
Wind: Variable at 1 MPH (1 KT):0
Visibility: greater than 7 mile(s):0
Sky conditions: mostly cloudy
Temperature: 35 F (2 C)
Dew Point: 35 F (2 C)
Relative Humidity: 100%
Pressure (altimeter): 29.65 in. Hg (1004 hPa)
ob: LSGG 130250Z AUTO VRB01KT 9999 BKN059 02/02 Q1004 NOSIG
cycle: 3

Station Type Date Time Source
LSGG TAF 2019/11/13 03:33 UTC NOAA

TAF TAF LSGG 130225Z 1303/1409 VRB03KT 9999 SCT045 TX06/1314Z TN00/1306Z TNM01/1406Z

Example: see airport list